createdAt,value
2023-01-05T00:01:54.733Z,10.75
2023-01-05T00:04:23.860Z,10.75
2023-01-05T00:06:54.122Z,10.75
2023-01-05T00:09:22.701Z,10.73
2023-01-05T00:12:08.589Z,10.69
2023-01-05T00:14:54.562Z,10.61
2023-01-05T00:17:42.311Z,10.58
2023-01-05T00:20:33.607Z,10.57
2023-01-05T00:23:03.891Z,10.57
2023-01-05T00:25:34.936Z,10.49
2023-01-05T00:28:03.661Z,10.53
2023-01-05T00:30:35.754Z,10.48
2023-01-05T00:33:04.401Z,10.47
2023-01-05T00:35:36.443Z,10.46
2023-01-05T00:38:08.420Z,10.42
2023-01-05T00:40:43.199Z,10.41
2023-01-05T00:43:16.054Z,10.38
2023-01-05T00:45:52.873Z,10.43
2023-01-05T00:48:24.709Z,10.53
2023-01-05T00:51:00.121Z,10.61
2023-01-05T00:53:33.772Z,10.68
2023-01-05T00:56:07.016Z,10.78
2023-01-05T00:58:40.949Z,10.83
2023-01-05T01:01:14.663Z,10.84
2023-01-05T01:03:44.829Z,10.90
2023-01-05T01:06:19.048Z,10.92
2023-01-05T01:08:54.466Z,10.84
2023-01-05T01:11:24.004Z,10.96
2023-01-05T01:13:56.020Z,10.88
2023-01-05T01:16:27.454Z,11.02
2023-01-05T01:19:05.440Z,11.03
2023-01-05T01:21:35.784Z,11.01
2023-01-05T01:24:06.754Z,11.01
2023-01-05T01:26:36.483Z,11.00
2023-01-05T01:29:06.047Z,11.12
2023-01-05T01:31:40.383Z,11.18
2023-01-05T01:34:10.257Z,11.25
2023-01-05T01:36:41.068Z,11.30
2023-01-05T01:42:09.438Z,11.35
2023-01-05T01:44:55.667Z,11.44
2023-01-05T01:47:29.809Z,11.50
2023-01-05T01:50:01.136Z,11.55
2023-01-05T01:52:32.991Z,11.59
2023-01-05T01:55:05.714Z,11.71
2023-01-05T01:57:35.498Z,11.80
2023-01-05T02:00:07.212Z,11.80
2023-01-05T02:02:36.085Z,11.83
2023-01-05T02:05:09.693Z,11.81
2023-01-05T02:07:45.563Z,11.86
2023-01-05T02:10:17.785Z,11.84
2023-01-05T02:13:03.401Z,11.80
2023-01-05T02:15:43.685Z,11.78
2023-01-05T02:18:29.209Z,11.70
2023-01-05T02:21:10.373Z,11.62
2023-01-05T02:24:16.493Z,11.50
2023-01-05T02:27:10.803Z,11.39
2023-01-05T02:30:14.501Z,11.30
2023-01-05T02:32:51.767Z,11.33
2023-01-05T02:35:31.523Z,11.33
2023-01-05T02:38:09.351Z,11.36
2023-01-05T02:40:42.823Z,11.37
2023-01-05T02:43:13.302Z,11.41
2023-01-05T02:45:41.885Z,11.51
2023-01-05T02:48:11.825Z,11.57
2023-01-05T02:50:44.638Z,11.63
2023-01-05T02:53:20.845Z,11.66
2023-01-05T02:55:53.798Z,11.61
2023-01-05T02:58:27.324Z,11.65
2023-01-05T03:01:02.116Z,11.64
2023-01-05T03:03:37.547Z,11.68
2023-01-05T03:06:11.360Z,11.72
2023-01-05T03:08:43.761Z,11.71
2023-01-05T03:11:30.648Z,11.68
2023-01-05T03:14:05.086Z,11.53
2023-01-05T03:16:38.078Z,11.45
2023-01-05T03:19:30.712Z,11.45
2023-01-05T03:22:19.138Z,11.48
2023-01-05T03:25:04.933Z,11.47
2023-01-05T03:27:51.734Z,11.39
2023-01-05T03:30:37.740Z,11.33
2023-01-05T03:33:29.731Z,11.31
2023-01-05T03:36:02.651Z,11.28
2023-01-05T03:38:36.681Z,11.26
2023-01-05T03:41:10.442Z,11.23
2023-01-05T03:43:39.291Z,11.30
2023-01-05T03:46:12.753Z,11.27
2023-01-05T03:48:41.536Z,11.22
2023-01-05T03:51:11.663Z,11.36
2023-01-05T03:53:40.270Z,11.33
2023-01-05T03:56:09.167Z,11.41
2023-01-05T03:58:37.751Z,11.44
2023-01-05T04:01:07.206Z,11.31
2023-01-05T04:03:37.442Z,11.29
2023-01-05T04:06:06.134Z,11.20
2023-01-05T04:08:36.202Z,11.19
2023-01-05T04:11:15.967Z,11.10
2023-01-05T04:13:44.694Z,10.97
2023-01-05T04:16:14.082Z,10.65
2023-01-05T04:18:42.758Z,10.53
2023-01-05T04:21:11.268Z,10.43
2023-01-05T04:23:41.256Z,10.32
2023-01-05T04:26:09.943Z,10.26
2023-01-05T04:28:38.629Z,10.28
2023-01-05T04:31:07.169Z,10.37
2023-01-05T04:33:36.611Z,10.36
2023-01-05T04:36:05.330Z,10.31
2023-01-05T04:38:33.917Z,10.34
2023-01-05T04:41:03.874Z,10.28
2023-01-05T04:43:32.446Z,10.22
2023-01-05T04:46:01.104Z,10.17
2023-01-05T04:48:32.082Z,10.18
2023-01-05T04:51:01.054Z,10.14
2023-01-05T04:53:30.674Z,10.14
2023-01-05T04:55:59.285Z,10.13
2023-01-05T04:58:29.276Z,10.13
2023-01-05T05:00:57.869Z,10.17
2023-01-05T05:03:32.593Z,10.13
2023-01-05T05:06:03.824Z,10.16
2023-01-05T05:08:32.416Z,10.18
2023-01-05T05:11:01.210Z,10.16
2023-01-05T05:13:31.545Z,10.08
2023-01-05T05:16:00.090Z,10.05
2023-01-05T05:18:28.727Z,9.80
2023-01-05T05:20:59.682Z,9.82
2023-01-05T05:23:28.249Z,9.73
2023-01-05T05:25:56.724Z,9.72
2023-01-05T05:28:28.591Z,9.65
2023-01-05T05:30:59.330Z,9.60
2023-01-05T05:33:28.019Z,9.49
2023-01-05T05:35:56.616Z,9.57
2023-01-05T05:38:26.715Z,9.57
2023-01-05T05:40:55.244Z,9.49
2023-01-05T05:43:23.719Z,9.50
2023-01-05T05:45:52.276Z,9.50
2023-01-05T05:48:22.200Z,9.54
2023-01-05T05:50:50.727Z,9.58
2023-01-05T05:53:19.306Z,9.56
2023-01-05T05:55:50.241Z,9.57
2023-01-05T05:58:19.146Z,9.55
2023-01-05T06:00:48.347Z,9.59
2023-01-05T06:03:16.896Z,9.52
2023-01-05T06:05:47.700Z,9.61
2023-01-05T06:08:16.183Z,9.61
2023-01-05T06:10:44.758Z,9.61
2023-01-05T06:13:13.451Z,9.60
2023-01-05T06:15:42.017Z,9.60
2023-01-05T06:18:11.136Z,9.62
2023-01-05T06:20:39.610Z,9.63
2023-01-05T06:23:09.725Z,9.58
2023-01-05T06:25:38.337Z,9.57
2023-01-05T06:28:06.929Z,9.59
2023-01-05T06:30:35.602Z,9.56
2023-01-05T06:33:04.194Z,9.55
2023-01-05T06:35:33.519Z,9.51
2023-01-05T06:38:02.056Z,9.44
2023-01-05T06:40:32.040Z,9.56
2023-01-05T06:43:00.609Z,9.53
2023-01-05T06:45:29.249Z,9.53
2023-01-05T06:47:59.284Z,9.63
2023-01-05T06:50:27.806Z,9.63
2023-01-05T06:52:56.291Z,9.64
2023-01-05T06:55:24.880Z,9.73
2023-01-05T06:58:00.495Z,9.74
2023-01-05T07:00:30.177Z,9.77
2023-01-05T07:02:59.144Z,9.79
2023-01-05T07:05:27.626Z,9.83
2023-01-05T07:07:56.423Z,9.83
2023-01-05T07:10:24.960Z,9.89
2023-01-05T07:12:54.882Z,9.92
2023-01-05T07:15:23.396Z,9.97
2023-01-05T07:17:52.004Z,9.97
2023-01-05T07:20:20.637Z,9.98
2023-01-05T07:22:49.277Z,10.00
2023-01-05T07:25:17.972Z,9.92
2023-01-05T07:27:56.896Z,9.98
2023-01-05T07:30:25.718Z,9.97
2023-01-05T07:32:54.242Z,10.03
2023-01-05T07:35:22.971Z,10.04
2023-01-05T07:37:51.509Z,10.05
2023-01-05T07:40:20.157Z,10.04
2023-01-05T07:42:52.577Z,10.06
2023-01-05T07:45:23.006Z,10.11
2023-01-05T07:47:51.657Z,10.11
2023-01-05T07:50:20.227Z,10.17
2023-01-05T07:52:48.828Z,10.20
2023-01-05T07:55:17.361Z,10.21
2023-01-05T07:57:47.216Z,10.20
2023-01-05T08:00:16.199Z,10.23
2023-01-05T08:02:46.760Z,10.19
2023-01-05T08:05:15.317Z,10.27
2023-01-05T08:07:43.927Z,10.27
2023-01-05T08:10:26.606Z,10.27
2023-01-05T08:13:12.623Z,10.32
2023-01-05T08:15:43.675Z,10.30
2023-01-05T08:18:17.498Z,10.33
2023-01-05T08:20:51.811Z,10.38
2023-01-05T08:23:26.010Z,10.34
2023-01-05T08:25:55.901Z,10.43
2023-01-05T08:28:28.386Z,10.43
2023-01-05T08:31:06.151Z,10.45
2023-01-05T08:33:36.362Z,10.52
2023-01-05T08:36:10.048Z,10.55
2023-01-05T08:38:38.843Z,10.59
2023-01-05T08:41:07.597Z,10.64
2023-01-05T08:43:37.878Z,10.72
2023-01-05T08:46:06.638Z,10.73
2023-01-05T08:48:36.877Z,10.74
2023-01-05T08:51:07.493Z,10.72
2023-01-05T08:53:36.422Z,10.80
2023-01-05T08:56:04.856Z,10.80
2023-01-05T08:58:33.278Z,10.85
2023-01-05T09:01:01.833Z,10.84
2023-01-05T09:03:30.379Z,10.86
2023-01-05T09:06:02.948Z,10.89
2023-01-05T09:08:31.929Z,10.91
2023-01-05T09:11:08.289Z,10.91
2023-01-05T09:13:36.753Z,10.92
2023-01-05T09:16:07.311Z,10.92
2023-01-05T09:18:37.200Z,11.04
2023-01-05T09:21:07.558Z,11.05
2023-01-05T09:23:36.526Z,11.04
2023-01-05T09:26:06.424Z,11.02
2023-01-05T09:28:36.617Z,11.06
2023-01-05T09:31:09.809Z,11.06
2023-01-05T09:33:38.354Z,11.09
2023-01-05T09:36:09.666Z,11.06
2023-01-05T09:38:43.369Z,10.87
2023-01-05T09:41:19.865Z,10.92
2023-01-05T09:43:50.368Z,10.82
2023-01-05T09:46:23.605Z,10.71
2023-01-05T09:48:55.621Z,10.55
2023-01-05T09:51:25.444Z,10.52
2023-01-05T09:53:54.049Z,10.41
2023-01-05T09:57:08.145Z,10.36
2023-01-05T09:59:27.585Z,10.36
2023-01-05T10:02:00.115Z,10.37
2023-01-05T10:04:31.193Z,10.37
2023-01-05T10:07:07.155Z,10.42
2023-01-05T10:09:40.393Z,10.49
2023-01-05T10:12:38.258Z,10.56
2023-01-05T10:15:11.527Z,10.60
2023-01-05T10:17:43.488Z,10.61
2023-01-05T10:20:18.060Z,10.57
2023-01-05T10:22:59.456Z,10.52
2023-01-05T10:25:36.216Z,10.60
2023-01-05T10:28:20.997Z,10.65
2023-01-05T10:30:59.155Z,10.71
2023-01-05T10:33:53.589Z,10.66
2023-01-05T10:39:37.389Z,10.82
2023-01-05T10:42:12.335Z,10.87
2023-01-05T10:44:54.648Z,10.87
2023-01-05T10:47:24.581Z,11.05
2023-01-05T10:49:53.394Z,11.10
2023-01-05T10:52:24.282Z,10.88
2023-01-05T10:54:58.587Z,9.15
2023-01-05T10:57:40.328Z,8.64
2023-01-05T11:00:17.093Z,8.37
2023-01-05T11:02:51.276Z,8.40
2023-01-05T11:05:29.569Z,8.34
2023-01-05T11:08:00.777Z,8.37
2023-01-05T11:10:34.491Z,8.34
2023-01-05T11:13:09.028Z,8.38
2023-01-05T11:15:44.474Z,8.32
2023-01-05T11:18:27.190Z,8.42
2023-01-05T11:21:23.548Z,8.35
2023-01-05T11:23:54.334Z,8.33
2023-01-05T11:26:30.812Z,8.38
2023-01-05T11:29:20.318Z,8.40
2023-01-05T11:31:53.901Z,8.27
2023-01-05T11:34:35.323Z,8.30
2023-01-05T11:37:08.412Z,8.36
2023-01-05T11:39:42.527Z,8.24
2023-01-05T11:42:24.715Z,8.16
2023-01-05T11:44:56.928Z,8.26
2023-01-05T11:47:30.508Z,8.25
2023-01-05T11:50:08.540Z,8.30
2023-01-05T11:52:39.973Z,8.35
2023-01-05T11:55:34.149Z,8.38
2023-01-05T11:58:24.925Z,8.49
2023-01-05T12:01:19.077Z,8.48
2023-01-05T12:04:02.865Z,8.52
2023-01-05T12:07:02.388Z,8.55
2023-01-05T12:09:35.316Z,8.59
2023-01-05T12:12:40.571Z,8.66
2023-01-05T12:15:58.486Z,8.82
2023-01-05T12:18:51.856Z,8.95
2023-01-05T12:21:25.172Z,8.85
2023-01-05T12:24:14.250Z,8.94
2023-01-05T12:26:51.538Z,9.00
2023-01-05T12:36:00.615Z,9.06
2023-01-05T12:38:49.024Z,9.07
2023-01-05T12:41:43.678Z,9.12
2023-01-05T12:44:47.508Z,9.26
2023-01-05T12:47:37.825Z,9.34
2023-01-05T12:50:23.640Z,9.53
2023-01-05T12:52:56.986Z,9.68
2023-01-05T12:55:31.827Z,9.60
2023-01-05T12:58:05.965Z,9.66
2023-01-05T13:00:42.292Z,9.63
2023-01-05T13:03:18.738Z,9.63
2023-01-05T13:05:57.331Z,9.70
2023-01-05T13:08:33.157Z,9.68
2023-01-05T13:11:06.335Z,9.71
2023-01-05T13:13:39.648Z,9.77
2023-01-05T13:16:16.787Z,9.83
2023-01-05T13:18:52.513Z,9.93
2023-01-05T13:21:24.647Z,10.02
2023-01-05T13:23:56.963Z,10.09
2023-01-05T13:26:25.451Z,10.14
2023-01-05T13:28:57.358Z,10.14
2023-01-05T13:32:02.368Z,10.33
2023-01-05T13:34:53.798Z,10.42
2023-01-05T13:40:41.427Z,10.37
2023-01-05T13:43:27.502Z,10.48
2023-01-05T13:46:22.525Z,10.65
2023-01-05T13:49:04.827Z,10.78
2023-01-05T13:51:54.582Z,10.90
2023-01-05T13:54:54.364Z,10.77
2023-01-05T13:57:25.518Z,10.69
2023-01-05T14:00:06.348Z,10.64
2023-01-05T14:02:39.101Z,10.55
2023-01-05T14:05:17.097Z,10.51
2023-01-05T14:07:45.705Z,10.46
2023-01-05T14:10:28.258Z,10.44
2023-01-05T14:12:57.015Z,10.41
2023-01-05T14:15:43.470Z,10.36
2023-01-05T14:18:15.529Z,10.36
2023-01-05T14:20:47.013Z,10.31
2023-01-05T14:23:51.814Z,10.26
2023-01-05T14:26:56.406Z,10.24
2023-01-05T14:29:59.586Z,10.25
2023-01-05T14:32:30.421Z,10.22
2023-01-05T14:35:04.071Z,10.22
2023-01-05T14:37:37.997Z,10.21
2023-01-05T14:40:22.592Z,10.17
2023-01-05T14:42:52.917Z,10.17
2023-01-05T14:45:25.204Z,10.09
2023-01-05T14:47:56.929Z,10.12
2023-01-05T14:50:35.656Z,10.13
2023-01-05T14:53:13.166Z,10.11
2023-01-05T14:55:43.522Z,10.06
2023-01-05T14:58:51.043Z,10.06
2023-01-05T15:01:24.930Z,9.99
2023-01-05T15:03:56.824Z,9.98
2023-01-05T15:06:32.677Z,9.96
2023-01-05T15:09:19.795Z,9.97
2023-01-05T15:12:11.656Z,9.96
2023-01-05T15:15:12.403Z,10.00
2023-01-05T15:18:05.683Z,10.00
2023-01-05T15:21:17.066Z,10.05
2023-01-05T15:24:21.320Z,9.93
2023-01-05T15:27:07.032Z,9.95
2023-01-05T15:29:52.526Z,9.91
2023-01-05T15:32:23.743Z,9.86
2023-01-05T15:35:02.210Z,9.86
2023-01-05T15:37:35.978Z,9.83
2023-01-05T15:40:07.926Z,9.78
2023-01-05T15:42:40.956Z,9.74
2023-01-05T15:45:18.745Z,9.75
2023-01-05T15:47:48.737Z,9.75
2023-01-05T15:50:23.226Z,9.72
2023-01-05T15:52:56.366Z,9.66
2023-01-05T15:55:26.191Z,9.68
2023-01-05T15:57:57.541Z,9.74
2023-01-05T16:00:29.797Z,9.73
2023-01-05T16:02:58.877Z,9.63
2023-01-05T16:05:30.435Z,9.69
2023-01-05T16:08:00.173Z,9.66
2023-01-05T16:10:32.833Z,9.66
2023-01-05T16:13:06.872Z,9.69
2023-01-05T16:15:40.722Z,9.69
2023-01-05T16:18:15.613Z,9.68
2023-01-05T16:20:50.131Z,9.60
2023-01-05T16:23:24.861Z,9.64
2023-01-05T16:25:57.782Z,9.68
2023-01-05T16:28:27.598Z,9.66
2023-01-05T16:30:56.713Z,9.68
2023-01-05T16:33:35.147Z,9.65
2023-01-05T16:36:14.863Z,9.65
2023-01-05T16:38:43.322Z,9.63
2023-01-05T16:41:14.659Z,9.63
2023-01-05T16:43:46.267Z,9.57
2023-01-05T16:46:36.839Z,9.60
2023-01-05T16:49:34.091Z,9.58
2023-01-05T16:52:07.802Z,9.50
2023-01-05T16:54:39.711Z,9.45
2023-01-05T16:57:40.193Z,9.41
2023-01-05T17:00:37.335Z,9.32
2023-01-05T17:03:28.185Z,9.26
2023-01-05T17:05:57.710Z,9.22
2023-01-05T17:08:30.806Z,9.17
2023-01-05T17:11:00.584Z,9.20
2023-01-05T17:13:37.199Z,9.27
2023-01-05T17:16:06.165Z,9.28
2023-01-05T17:18:34.830Z,9.27
2023-01-05T17:21:06.447Z,9.19
2023-01-05T17:23:40.522Z,9.24
2023-01-05T17:26:12.834Z,9.26
2023-01-05T17:28:43.032Z,9.27
2023-01-05T17:33:40.463Z,9.29
2023-01-05T17:36:09.340Z,9.34
2023-01-05T17:38:39.728Z,9.34
2023-01-05T17:41:08.465Z,9.25
2023-01-05T17:43:37.056Z,9.30
2023-01-05T17:46:05.950Z,9.29
2023-01-05T17:48:34.602Z,9.28
2023-01-05T17:51:03.393Z,9.25
2023-01-05T17:53:31.891Z,9.26
2023-01-05T17:58:30.497Z,9.24
2023-01-05T18:00:58.916Z,9.19
2023-01-05T18:03:27.575Z,9.16
2023-01-05T18:05:55.968Z,9.15
2023-01-05T18:08:24.634Z,9.05
2023-01-05T18:10:53.127Z,9.05
2023-01-05T18:13:23.154Z,9.03
2023-01-05T18:15:53.466Z,8.94
2023-01-05T18:18:22.421Z,9.05
2023-01-05T18:20:51.935Z,9.07
2023-01-05T18:23:21.710Z,9.06
2023-01-05T18:25:50.227Z,9.04
2023-01-05T18:28:18.872Z,9.03
2023-01-05T18:30:48.756Z,8.97
2023-01-05T18:33:17.556Z,8.96
2023-01-05T18:35:46.192Z,8.99
2023-01-05T18:38:14.765Z,8.91
2023-01-05T18:40:48.524Z,8.93
2023-01-05T18:43:16.975Z,8.92
2023-01-05T18:45:45.608Z,8.86
2023-01-05T18:48:15.582Z,8.80
2023-01-05T18:50:50.048Z,8.69
2023-01-05T18:53:18.873Z,8.63
2023-01-05T18:55:47.365Z,8.54
2023-01-05T18:58:16.383Z,8.37
2023-01-05T19:00:46.727Z,8.22
2023-01-05T19:03:16.915Z,8.13
2023-01-05T19:05:46.152Z,8.07
2023-01-05T19:08:15.559Z,7.95
2023-01-05T19:10:44.121Z,8.03
2023-01-05T19:13:12.503Z,7.99
2023-01-05T19:15:41.017Z,8.00
2023-01-05T19:18:09.592Z,7.98
2023-01-05T19:20:39.643Z,7.96
2023-01-05T19:23:08.513Z,7.94
2023-01-05T19:25:37.081Z,7.96
2023-01-05T19:28:05.528Z,7.88
2023-01-05T19:30:34.113Z,7.87
2023-01-05T19:33:02.645Z,7.82
2023-01-05T19:35:31.786Z,7.78
2023-01-05T19:38:02.928Z,7.79
2023-01-05T19:40:33.994Z,7.78
2023-01-05T19:43:02.570Z,7.76
2023-01-05T19:45:31.177Z,7.75
2023-01-05T19:48:00.226Z,7.73
2023-01-05T19:50:28.957Z,7.69
2023-01-05T19:52:57.446Z,7.69
2023-01-05T19:55:27.338Z,7.66
2023-01-05T19:57:55.798Z,7.55
2023-01-05T20:00:24.302Z,7.42
2023-01-05T20:02:52.842Z,7.40
2023-01-05T20:05:21.575Z,7.33
2023-01-05T20:07:50.049Z,7.28
2023-01-05T20:10:18.737Z,7.25
2023-01-05T20:12:48.789Z,7.18
2023-01-05T20:15:17.324Z,7.19
2023-01-05T20:17:46.077Z,7.15
2023-01-05T20:20:15.463Z,7.17
2023-01-05T20:22:44.157Z,7.17
2023-01-05T20:25:12.643Z,7.10
2023-01-05T20:27:41.599Z,7.12
2023-01-05T20:30:13.392Z,7.02
2023-01-05T20:32:42.238Z,7.03
2023-01-05T20:35:13.493Z,7.08
2023-01-05T20:37:42.346Z,7.07
2023-01-05T20:40:11.456Z,7.07
2023-01-05T20:42:40.368Z,7.03
2023-01-05T20:45:10.965Z,7.01
2023-01-05T20:47:47.434Z,6.89
2023-01-05T20:50:17.012Z,6.99
2023-01-05T20:52:45.859Z,6.97
2023-01-05T20:55:17.930Z,6.85
2023-01-05T20:57:47.612Z,6.94
2023-01-05T21:00:18.777Z,6.89
2023-01-05T21:02:48.606Z,6.91
2023-01-05T21:05:17.900Z,6.89
2023-01-05T21:07:46.832Z,6.90
2023-01-05T21:10:15.834Z,6.80
2023-01-05T21:12:44.417Z,6.87
2023-01-05T21:15:20.042Z,6.82
2023-01-05T21:17:49.080Z,6.92
2023-01-05T21:20:24.139Z,6.87
2023-01-05T21:22:54.750Z,6.84
2023-01-05T21:25:24.994Z,6.88
2023-01-05T21:27:54.263Z,6.85
2023-01-05T21:30:24.151Z,6.92
2023-01-05T21:32:52.963Z,6.95
2023-01-05T21:35:21.420Z,6.95
2023-01-05T21:37:49.911Z,6.87
2023-01-05T21:40:19.109Z,6.82
2023-01-05T21:42:50.555Z,6.76
2023-01-05T21:45:20.170Z,6.73
2023-01-05T21:47:55.418Z,6.79
2023-01-05T21:50:41.055Z,6.63
2023-01-05T21:53:32.260Z,6.73
2023-01-05T21:56:18.104Z,6.70
2023-01-05T21:58:47.349Z,6.63
2023-01-05T22:01:15.916Z,6.63
2023-01-05T22:03:46.771Z,6.57
2023-01-05T22:06:15.358Z,6.57
2023-01-05T22:08:43.902Z,6.53
2023-01-05T22:11:12.804Z,6.46
2023-01-05T22:13:41.709Z,6.34
2023-01-05T22:16:10.714Z,6.34
2023-01-05T22:18:40.728Z,6.35
2023-01-05T22:21:12.918Z,6.33
2023-01-05T22:23:41.663Z,6.28
2023-01-05T22:26:13.040Z,6.29
2023-01-05T22:28:43.497Z,6.22
2023-01-05T22:31:14.956Z,6.19
2023-01-05T22:33:46.952Z,6.16
2023-01-05T22:36:19.044Z,6.16
2023-01-05T22:38:49.379Z,6.08
2023-01-05T22:41:20.194Z,6.11
2023-01-05T22:43:49.283Z,6.08
2023-01-05T22:46:19.792Z,6.11
2023-01-05T22:48:49.904Z,6.11
2023-01-05T22:51:22.544Z,6.13
2023-01-05T22:53:51.482Z,6.11
2023-01-05T22:56:21.445Z,6.12
2023-01-05T22:58:50.610Z,6.11
2023-01-05T23:01:23.510Z,6.10
2023-01-05T23:03:53.042Z,6.25
2023-01-05T23:06:23.514Z,6.16
2023-01-05T23:08:52.918Z,6.18
2023-01-05T23:11:24.224Z,6.19
2023-01-05T23:13:53.678Z,6.13
2023-01-05T23:16:22.957Z,6.11
2023-01-05T23:18:51.483Z,5.97
2023-01-05T23:21:21.269Z,6.01
2023-01-05T23:23:52.654Z,6.01
2023-01-05T23:26:21.596Z,5.98
2023-01-05T23:28:50.601Z,5.89
2023-01-05T23:31:20.309Z,5.99
2023-01-05T23:33:50.143Z,5.91
2023-01-05T23:36:20.071Z,5.94
2023-01-05T23:38:48.943Z,5.95
2023-01-05T23:41:19.764Z,5.87
2023-01-05T23:43:48.547Z,5.89
2023-01-05T23:46:20.385Z,5.95
2023-01-05T23:48:49.976Z,5.94
2023-01-05T23:51:19.308Z,5.92
2023-01-05T23:53:49.165Z,5.88
2023-01-05T23:56:21.908Z,5.90
2023-01-05T23:58:56.588Z,5.80
